createdAt,value
2022-10-19T00:01:23.819Z,101679.56
2022-10-19T00:03:56.045Z,101687.09
2022-10-19T00:06:26.581Z,101689.75
2022-10-19T00:08:55.741Z,101690.56
2022-10-19T00:11:25.286Z,101685.84
2022-10-19T00:13:54.355Z,101682.69
2022-10-19T00:16:23.858Z,101683.25
2022-10-19T00:18:57.312Z,101684.78
2022-10-19T00:21:25.611Z,101691.19
2022-10-19T00:23:53.836Z,101681.34
2022-10-19T00:26:22.338Z,101690.41
2022-10-19T00:28:50.814Z,101690.66
2022-10-19T00:31:19.740Z,101689.94
2022-10-19T00:33:48.339Z,101692.34
2022-10-19T00:36:20.626Z,101694.09
2022-10-19T00:38:49.562Z,101694.97
2022-10-19T00:41:19.594Z,101696.13
2022-10-19T00:43:56.460Z,101703.22
2022-10-19T00:46:24.989Z,101697.69
2022-10-19T00:48:56.679Z,101699.91
2022-10-19T00:51:43.435Z,101706.00
2022-10-19T00:54:13.289Z,101693.03
2022-10-19T00:56:44.252Z,101696.41
2022-10-19T00:59:14.930Z,101697.22
2022-10-19T01:01:45.689Z,101690.88
2022-10-19T01:04:15.130Z,101689.53
2022-10-19T01:06:45.459Z,101689.53
2022-10-19T01:09:13.919Z,101683.81
2022-10-19T01:11:52.570Z,101682.41
2022-10-19T01:14:33.550Z,101683.00
2022-10-19T01:17:12.443Z,101675.94
2022-10-19T01:20:31.004Z,101677.63
2022-10-19T01:23:18.345Z,101671.19
2022-10-19T01:25:56.089Z,101670.13
2022-10-19T01:28:40.738Z,101660.31
2022-10-19T01:31:20.687Z,101671.00
2022-10-19T01:36:31.575Z,101669.78
2022-10-19T01:39:07.083Z,101677.09
2022-10-19T01:41:43.169Z,101673.22
2022-10-19T01:44:17.668Z,101669.66
2022-10-19T01:46:53.332Z,101679.31
2022-10-19T01:49:26.684Z,101677.34
2022-10-19T01:54:51.722Z,101668.22
2022-10-19T01:57:24.278Z,101671.06
2022-10-19T01:59:54.489Z,101666.25
2022-10-19T02:02:27.220Z,101659.91
2022-10-19T02:04:58.270Z,101667.41
2022-10-19T02:07:27.274Z,101669.09
2022-10-19T02:09:55.598Z,101660.44
2022-10-19T02:12:25.620Z,101663.22
2022-10-19T02:14:59.383Z,101661.44
2022-10-19T02:17:34.975Z,101657.75
2022-10-19T02:20:05.851Z,101662.16
2022-10-19T02:22:34.558Z,101665.81
2022-10-19T02:25:03.053Z,101666.47
2022-10-19T02:27:31.368Z,101670.03
2022-10-19T02:29:59.655Z,101668.41
2022-10-19T02:32:30.076Z,101660.53
2022-10-19T02:34:58.825Z,101672.44
2022-10-19T02:37:27.235Z,101664.03
2022-10-19T02:39:55.714Z,101671.53
2022-10-19T02:42:30.516Z,101672.44
2022-10-19T02:45:02.296Z,101667.53
2022-10-19T02:47:36.989Z,101669.22
2022-10-19T02:50:07.296Z,101673.16
2022-10-19T02:52:37.791Z,101676.47
2022-10-19T02:55:07.296Z,101678.44
2022-10-19T02:57:36.268Z,101676.75
2022-10-19T03:00:06.761Z,101682.09
2022-10-19T03:02:37.292Z,101689.44
2022-10-19T03:05:06.069Z,101684.25
2022-10-19T03:07:34.748Z,101683.78
2022-10-19T03:10:05.167Z,101702.50
2022-10-19T03:12:33.476Z,101688.09
2022-10-19T03:15:01.771Z,101688.91
2022-10-19T03:17:30.097Z,101692.75
2022-10-19T03:20:00.449Z,101688.56
2022-10-19T03:22:28.711Z,101687.91
2022-10-19T03:24:57.080Z,101684.72
2022-10-19T03:27:25.322Z,101688.72
2022-10-19T03:29:53.553Z,101697.94
2022-10-19T03:32:21.809Z,101694.06
2022-10-19T03:34:49.985Z,101697.94
2022-10-19T03:37:20.148Z,101699.34
2022-10-19T03:39:48.405Z,101700.44
2022-10-19T03:42:16.610Z,101710.91
2022-10-19T03:44:44.824Z,101706.50
2022-10-19T03:47:13.066Z,101705.00
2022-10-19T03:49:42.917Z,101703.66
2022-10-19T03:52:11.377Z,101704.72
2022-10-19T03:54:41.660Z,101706.16
2022-10-19T03:57:09.883Z,101704.56
2022-10-19T03:59:38.106Z,101711.19
2022-10-19T04:02:06.418Z,101702.94
2022-10-19T04:04:34.788Z,101698.38
2022-10-19T04:07:03.134Z,101706.81
2022-10-19T04:09:31.504Z,101711.53
2022-10-19T04:12:01.672Z,101716.44
2022-10-19T04:14:33.272Z,101714.06
2022-10-19T04:17:07.712Z,101718.78
2022-10-19T04:19:35.893Z,101717.78
2022-10-19T04:22:04.243Z,101717.72
2022-10-19T04:24:32.540Z,101717.97
2022-10-19T04:27:03.278Z,101725.13
2022-10-19T04:29:31.479Z,101726.38
2022-10-19T04:32:00.504Z,101721.28
2022-10-19T04:34:28.815Z,101719.75
2022-10-19T04:36:58.640Z,101719.50
2022-10-19T04:39:27.003Z,101721.38
2022-10-19T04:41:55.187Z,101718.59
2022-10-19T04:44:25.426Z,101716.81
2022-10-19T04:46:53.633Z,101718.88
2022-10-19T04:49:21.986Z,101728.44
2022-10-19T04:51:50.212Z,101723.31
2022-10-19T04:54:18.517Z,101727.91
2022-10-19T04:56:46.719Z,101730.22
2022-10-19T04:59:14.941Z,101732.09
2022-10-19T05:01:47.347Z,101738.88
2022-10-19T05:04:15.699Z,101733.88
2022-10-19T05:06:43.915Z,101735.50
2022-10-19T05:09:12.179Z,101735.84
2022-10-19T05:11:40.465Z,101732.00
2022-10-19T05:14:08.912Z,101740.41
2022-10-19T05:16:37.202Z,101733.16
2022-10-19T05:19:07.450Z,101735.47
2022-10-19T05:21:35.679Z,101731.81
2022-10-19T05:24:04.027Z,101738.50
2022-10-19T05:26:32.379Z,101746.22
2022-10-19T05:29:03.847Z,101735.56
2022-10-19T05:31:34.231Z,101737.31
2022-10-19T05:34:03.507Z,101737.31
2022-10-19T05:36:36.219Z,101732.09
2022-10-19T05:39:07.869Z,101735.75
2022-10-19T05:41:36.582Z,101729.59
2022-10-19T05:44:06.302Z,101728.88
2022-10-19T05:46:35.583Z,101732.66
2022-10-19T05:49:05.993Z,101734.78
2022-10-19T05:51:36.175Z,101723.31
2022-10-19T05:54:04.808Z,101731.75
2022-10-19T05:56:34.190Z,101734.16
2022-10-19T05:59:05.262Z,101736.66
2022-10-19T06:01:34.535Z,101741.59
2022-10-19T06:04:05.093Z,101744.63
2022-10-19T06:06:33.339Z,101740.22
2022-10-19T06:09:03.560Z,101739.25
2022-10-19T06:11:34.448Z,101735.66
2022-10-19T06:14:04.116Z,101736.47
2022-10-19T06:16:33.574Z,101742.13
2022-10-19T06:19:02.088Z,101742.94
2022-10-19T06:21:31.860Z,101741.66
2022-10-19T06:24:05.216Z,101746.47
2022-10-19T06:26:35.416Z,101747.38
2022-10-19T06:29:05.272Z,101753.38
2022-10-19T06:31:36.701Z,101756.59
2022-10-19T06:34:05.555Z,101753.13
2022-10-19T06:36:34.430Z,101747.75
2022-10-19T06:39:05.104Z,101756.53
2022-10-19T06:41:34.080Z,101747.31
2022-10-19T06:44:03.434Z,101757.22
2022-10-19T06:46:32.086Z,101752.06
2022-10-19T06:49:01.856Z,101759.19
2022-10-19T06:51:33.474Z,101751.88
2022-10-19T06:54:01.741Z,101751.53
2022-10-19T06:56:31.855Z,101750.78
2022-10-19T06:59:00.377Z,101752.50
2022-10-19T07:01:28.677Z,101748.28
2022-10-19T07:03:57.159Z,101753.91
2022-10-19T07:06:25.575Z,101759.34
2022-10-19T07:08:53.950Z,101764.03
2022-10-19T07:11:23.714Z,101771.09
2022-10-19T07:13:54.907Z,101762.13
2022-10-19T07:16:23.561Z,101768.13
2022-10-19T07:18:53.418Z,101779.03
2022-10-19T07:21:24.302Z,101777.44
2022-10-19T07:23:52.726Z,101779.38
2022-10-19T07:26:26.021Z,101781.72
2022-10-19T07:28:57.620Z,101776.78
2022-10-19T07:31:27.728Z,101781.88
2022-10-19T07:33:56.816Z,101775.63
2022-10-19T07:36:26.251Z,101776.19
2022-10-19T07:38:54.713Z,101785.38
2022-10-19T07:41:25.195Z,101787.81
2022-10-19T07:43:54.127Z,101788.97
2022-10-19T07:46:26.556Z,101784.19
2022-10-19T07:48:55.371Z,101783.00
2022-10-19T07:51:24.141Z,101788.09
2022-10-19T07:53:52.662Z,101792.47
2022-10-19T07:56:23.436Z,101789.97
2022-10-19T07:58:53.106Z,101788.66
2022-10-19T08:01:27.515Z,101783.03
2022-10-19T08:06:46.253Z,101790.81
2022-10-19T08:09:33.356Z,101790.38
2022-10-19T08:12:02.961Z,101797.59
2022-10-19T08:14:31.332Z,101798.25
2022-10-19T08:17:01.551Z,101794.97
2022-10-19T08:19:29.778Z,101794.25
2022-10-19T08:21:58.048Z,101805.06
2022-10-19T08:24:26.325Z,101803.84
2022-10-19T08:26:54.979Z,101799.38
2022-10-19T08:29:25.504Z,101800.22
2022-10-19T08:31:56.397Z,101799.88
2022-10-19T08:34:26.690Z,101801.97
2022-10-19T08:36:55.237Z,101802.28
2022-10-19T08:39:23.781Z,101809.66
2022-10-19T08:42:01.827Z,101804.97
2022-10-19T08:44:48.630Z,101807.91
2022-10-19T08:47:27.709Z,101805.56
2022-10-19T08:49:59.620Z,101805.00
2022-10-19T08:52:34.486Z,101801.94
2022-10-19T08:55:05.613Z,101801.53
2022-10-19T08:57:42.519Z,101805.34
2022-10-19T09:00:18.971Z,101802.34
2022-10-19T09:03:00.103Z,101800.16
2022-10-19T09:05:38.199Z,101798.56
2022-10-19T09:08:06.684Z,101794.88
2022-10-19T09:10:38.654Z,101802.59
2022-10-19T09:13:15.680Z,101795.91
2022-10-19T09:15:46.521Z,101794.56
2022-10-19T09:18:20.479Z,101788.88
2022-10-19T09:20:52.628Z,101790.31
2022-10-19T09:23:27.511Z,101796.38
2022-10-19T09:26:00.453Z,101793.50
2022-10-19T09:28:47.732Z,101797.69
2022-10-19T09:31:21.754Z,101789.06
2022-10-19T09:33:55.004Z,101794.91
2022-10-19T09:36:49.346Z,101791.38
2022-10-19T09:39:18.159Z,101787.16
2022-10-19T09:41:48.607Z,101789.94
2022-10-19T09:44:17.324Z,101794.38
2022-10-19T09:46:51.855Z,101793.38
2022-10-19T09:49:21.104Z,101790.53
2022-10-19T09:51:54.027Z,101801.66
2022-10-19T09:54:34.950Z,101792.94
2022-10-19T09:57:03.922Z,101795.75
2022-10-19T09:59:35.987Z,101803.53
2022-10-19T10:02:19.200Z,101800.38
2022-10-19T10:04:48.910Z,101802.50
2022-10-19T10:07:22.154Z,101809.78
2022-10-19T10:09:50.397Z,101814.09
2022-10-19T10:12:18.607Z,101809.03
2022-10-19T10:14:46.955Z,101809.78
2022-10-19T10:17:19.520Z,101816.25
2022-10-19T10:20:08.769Z,101802.44
2022-10-19T10:22:39.168Z,101800.03
2022-10-19T10:25:17.899Z,101801.50
2022-10-19T10:27:56.758Z,101810.06
2022-10-19T10:30:25.493Z,101806.84
2022-10-19T10:33:00.360Z,101803.34
2022-10-19T10:35:37.710Z,101808.88
2022-10-19T10:38:11.485Z,101801.06
2022-10-19T10:40:41.314Z,101799.69
2022-10-19T10:43:16.064Z,101798.44
2022-10-19T10:45:47.296Z,101799.25
2022-10-19T10:48:22.836Z,101800.47
2022-10-19T10:50:52.449Z,101800.88
2022-10-19T10:53:40.524Z,101794.59
2022-10-19T10:56:25.162Z,101788.63
2022-10-19T10:58:59.077Z,101784.75
2022-10-19T11:01:31.792Z,101790.41
2022-10-19T11:04:05.945Z,101790.41
2022-10-19T11:06:43.725Z,101792.47
2022-10-19T11:09:27.535Z,101797.03
2022-10-19T11:11:58.792Z,101787.84
2022-10-19T11:14:38.505Z,101788.34
2022-10-19T11:17:08.942Z,101779.34
2022-10-19T11:19:40.789Z,101773.59
2022-10-19T11:22:23.607Z,101775.34
2022-10-19T11:25:09.661Z,101764.03
2022-10-19T11:27:48.298Z,101762.84
2022-10-19T11:30:20.000Z,101757.19
2022-10-19T11:32:58.843Z,101764.03
2022-10-19T11:35:37.659Z,101755.22
2022-10-19T11:38:30.223Z,101752.47
2022-10-19T11:41:18.671Z,101751.59
2022-10-19T11:43:59.664Z,101739.34
2022-10-19T11:46:35.111Z,101735.06
2022-10-19T11:49:15.152Z,101741.69
2022-10-19T11:51:51.416Z,101736.97
2022-10-19T11:54:40.953Z,101723.75
2022-10-19T11:57:16.463Z,101724.72
2022-10-19T12:00:13.564Z,101728.72
2022-10-19T12:03:13.451Z,101724.59
2022-10-19T12:06:07.408Z,101706.97
2022-10-19T12:08:56.301Z,101701.09
2022-10-19T12:11:32.700Z,101700.59
2022-10-19T12:14:06.553Z,101697.16
2022-10-19T12:16:39.757Z,101703.63
2022-10-19T12:19:13.719Z,101705.44
2022-10-19T12:21:44.472Z,101702.56
2022-10-19T12:24:16.825Z,101704.69
2022-10-19T12:26:46.826Z,101687.97
2022-10-19T12:29:20.979Z,101689.78
2022-10-19T12:31:50.477Z,101694.66
2022-10-19T12:34:32.602Z,101696.16
2022-10-19T12:37:10.759Z,101701.19
2022-10-19T12:39:45.286Z,101696.31
2022-10-19T12:42:24.863Z,101696.41
2022-10-19T12:45:09.837Z,101697.63
2022-10-19T12:47:38.266Z,101700.03
2022-10-19T12:50:06.979Z,101699.25
2022-10-19T12:52:42.624Z,101696.84
2022-10-19T12:55:34.229Z,101697.59
2022-10-19T12:58:07.033Z,101693.56
2022-10-19T13:00:39.219Z,101696.28
2022-10-19T13:03:15.955Z,101685.38
2022-10-19T13:05:44.337Z,101684.94
2022-10-19T13:08:28.357Z,101675.66
2022-10-19T13:11:09.423Z,101681.94
2022-10-19T13:13:57.080Z,101682.22
2022-10-19T13:16:42.507Z,101684.56
2022-10-19T13:19:22.149Z,101694.91
2022-10-19T13:22:15.323Z,101689.81
2022-10-19T13:24:43.610Z,101682.69
2022-10-19T13:27:39.865Z,101682.47
2022-10-19T13:30:45.497Z,101677.00
2022-10-19T13:33:48.618Z,101685.91
2022-10-19T13:36:18.218Z,101678.22
2022-10-19T13:38:48.858Z,101667.84
2022-10-19T13:41:21.029Z,101673.38
2022-10-19T13:44:00.164Z,101669.66
2022-10-19T13:46:45.851Z,101656.44
2022-10-19T13:49:42.543Z,101648.94
2022-10-19T13:52:48.028Z,101656.03
2022-10-19T13:55:31.920Z,101658.00
2022-10-19T13:58:18.507Z,101647.13
2022-10-19T14:01:10.003Z,101653.06
2022-10-19T14:03:54.843Z,101651.91
2022-10-19T14:06:30.966Z,101650.44
2022-10-19T14:09:26.087Z,101648.78
2022-10-19T14:12:03.796Z,101654.78
2022-10-19T14:14:32.114Z,101648.81
2022-10-19T14:17:04.188Z,101638.47
2022-10-19T14:19:35.657Z,101645.28
2022-10-19T14:22:21.239Z,101642.06
2022-10-19T14:24:49.518Z,101644.00
2022-10-19T14:27:23.265Z,101628.09
2022-10-19T14:29:53.252Z,101628.47
2022-10-19T14:32:26.187Z,101644.88
2022-10-19T14:34:55.429Z,101643.22
2022-10-19T14:37:28.273Z,101642.72
2022-10-19T14:40:02.983Z,101643.41
2022-10-19T14:42:43.094Z,101642.75
2022-10-19T14:45:18.226Z,101630.88
2022-10-19T14:47:54.757Z,101625.69
2022-10-19T14:50:28.092Z,101625.66
2022-10-19T14:53:02.829Z,101620.88
2022-10-19T14:55:36.535Z,101631.22
2022-10-19T14:58:12.375Z,101624.50
2022-10-19T15:00:40.973Z,101627.28
2022-10-19T15:03:13.752Z,101628.09
2022-10-19T15:05:49.192Z,101626.44
2022-10-19T15:08:26.130Z,101627.63
2022-10-19T15:10:55.120Z,101629.94
2022-10-19T15:13:26.658Z,101624.31
2022-10-19T15:15:56.584Z,101625.81
2022-10-19T15:18:47.592Z,101629.31
2022-10-19T15:21:17.349Z,101627.28
2022-10-19T15:23:48.341Z,101627.94
2022-10-19T15:26:20.535Z,101617.50
2022-10-19T15:28:50.112Z,101614.25
2022-10-19T15:31:20.198Z,101618.22
2022-10-19T15:33:54.029Z,101613.63
2022-10-19T15:36:24.236Z,101604.72
2022-10-19T15:39:18.282Z,101610.59
2022-10-19T15:41:52.822Z,101616.03
2022-10-19T15:44:33.504Z,101615.19
2022-10-19T15:47:21.030Z,101618.34
2022-10-19T15:50:00.792Z,101608.97
2022-10-19T15:52:30.366Z,101612.44
2022-10-19T15:55:01.840Z,101617.09
2022-10-19T15:57:33.689Z,101613.84
2022-10-19T16:00:08.615Z,101608.13
2022-10-19T16:02:38.475Z,101609.56
2022-10-19T16:05:08.165Z,101610.25
2022-10-19T16:07:40.685Z,101610.88
2022-10-19T16:10:17.994Z,101608.06
2022-10-19T16:12:46.542Z,101605.56
2022-10-19T16:15:15.757Z,101598.66
2022-10-19T16:17:45.408Z,101590.13
2022-10-19T16:20:14.631Z,101594.41
2022-10-19T16:22:43.165Z,101588.75
2022-10-19T16:25:14.133Z,101588.28
2022-10-19T16:27:42.726Z,101585.00
2022-10-19T16:30:12.658Z,101583.31
2022-10-19T16:35:11.530Z,101583.69
2022-10-19T16:37:39.986Z,101588.75
2022-10-19T16:40:10.171Z,101585.19
2022-10-19T16:42:40.590Z,101593.44
2022-10-19T16:45:10.665Z,101589.50
2022-10-19T16:47:39.092Z,101578.28
2022-10-19T16:50:11.909Z,101588.34
2022-10-19T16:52:40.535Z,101584.56
2022-10-19T16:55:10.015Z,101577.69
2022-10-19T16:57:40.319Z,101587.19
2022-10-19T17:00:10.175Z,101587.03
2022-10-19T17:02:41.994Z,101586.16
2022-10-19T17:05:12.942Z,101579.66
2022-10-19T17:07:41.247Z,101588.53
2022-10-19T17:10:10.658Z,101583.34
2022-10-19T17:12:45.807Z,101593.84
2022-10-19T17:18:02.845Z,101583.22
2022-10-19T17:20:31.201Z,101593.78
2022-10-19T17:22:59.482Z,101585.66
2022-10-19T17:25:27.751Z,101586.81
2022-10-19T17:27:58.199Z,101585.66
2022-10-19T17:30:26.570Z,101590.03
2022-10-19T17:32:54.915Z,101592.00
2022-10-19T17:35:23.409Z,101589.84
2022-10-19T17:37:51.766Z,101585.75
2022-10-19T17:40:20.441Z,101579.41
2022-10-19T17:42:49.079Z,101577.97
2022-10-19T17:45:24.381Z,101577.03
2022-10-19T17:47:52.786Z,101575.72
2022-10-19T17:50:21.088Z,101570.63
2022-10-19T17:52:49.536Z,101565.47
2022-10-19T17:57:49.116Z,101575.91
2022-10-19T18:00:19.599Z,101578.22
2022-10-19T18:02:48.457Z,101577.13
2022-10-19T18:05:16.973Z,101581.13
2022-10-19T18:07:46.564Z,101577.47
2022-10-19T18:10:15.096Z,101572.19
2022-10-19T18:12:43.320Z,101575.03
2022-10-19T18:15:11.784Z,101571.84
2022-10-19T18:17:42.040Z,101580.00
2022-10-19T18:20:11.647Z,101588.81
2022-10-19T18:22:40.211Z,101589.53
2022-10-19T18:25:09.436Z,101584.97
2022-10-19T18:27:37.943Z,101582.53
2022-10-19T18:30:08.724Z,101587.59
2022-10-19T18:32:37.731Z,101586.69
2022-10-19T18:35:09.785Z,101593.84
2022-10-19T18:37:38.289Z,101586.59
2022-10-19T18:40:09.906Z,101580.16
2022-10-19T18:42:38.394Z,101576.59
2022-10-19T18:45:08.954Z,101575.69
2022-10-19T18:47:37.169Z,101581.47
2022-10-19T18:50:06.422Z,101589.53
2022-10-19T18:52:38.606Z,101581.00
2022-10-19T18:55:07.971Z,101571.81
2022-10-19T18:57:36.235Z,101579.31
2022-10-19T19:00:05.477Z,101582.91
2022-10-19T19:02:45.734Z,101581.25
2022-10-19T19:05:14.873Z,101590.25
2022-10-19T19:07:45.084Z,101585.06
2022-10-19T19:10:13.865Z,101580.69
2022-10-19T19:12:43.233Z,101581.41
2022-10-19T19:15:12.408Z,101582.44
2022-10-19T19:17:40.662Z,101578.16
2022-10-19T19:20:09.768Z,101586.34
2022-10-19T19:22:38.286Z,101579.22
2022-10-19T19:25:09.533Z,101578.41
2022-10-19T19:30:08.184Z,101575.88
2022-10-19T19:32:36.756Z,101563.66
2022-10-19T19:35:05.581Z,101554.56
2022-10-19T19:37:34.149Z,101547.66
2022-10-19T19:40:02.629Z,101541.81
2022-10-19T19:42:33.021Z,101536.50
2022-10-19T19:45:01.239Z,101537.09
2022-10-19T19:47:29.507Z,101530.84
2022-10-19T19:49:57.790Z,101528.81
2022-10-19T19:52:26.147Z,101522.81
2022-10-19T19:54:54.350Z,101526.84
2022-10-19T19:57:22.639Z,101521.22
2022-10-19T19:59:52.754Z,101512.00
2022-10-19T20:02:21.162Z,101507.22
2022-10-19T20:04:49.381Z,101508.56
2022-10-19T20:07:17.559Z,101508.31
2022-10-19T20:09:45.862Z,101507.88
2022-10-19T20:12:14.089Z,101507.06
2022-10-19T20:14:42.388Z,101497.88
2022-10-19T20:17:12.647Z,101498.69
2022-10-19T20:19:40.850Z,101491.31
2022-10-19T20:22:09.116Z,101488.09
2022-10-19T20:24:37.845Z,101498.44
2022-10-19T20:27:06.340Z,101496.72
2022-10-19T20:29:34.541Z,101496.41
2022-10-19T20:32:02.897Z,101499.03
2022-10-19T20:34:33.101Z,101498.44
2022-10-19T20:37:01.462Z,101505.34
2022-10-19T20:39:30.117Z,101501.91
2022-10-19T20:41:58.493Z,101498.72
2022-10-19T20:44:26.881Z,101502.38
2022-10-19T20:46:55.285Z,101493.41
2022-10-19T20:49:23.812Z,101491.69
2022-10-19T20:51:55.337Z,101491.94
2022-10-19T20:54:23.591Z,101499.41
2022-10-19T20:56:51.813Z,101491.13
2022-10-19T20:59:22.076Z,101491.34
2022-10-19T21:01:52.614Z,101482.84
2022-10-19T21:04:21.229Z,101484.09
2022-10-19T21:06:52.038Z,101486.28
2022-10-19T21:09:25.413Z,101492.50
2022-10-19T21:11:54.260Z,101482.38
2022-10-19T21:14:27.207Z,101481.25
2022-10-19T21:16:58.079Z,101476.88
2022-10-19T21:19:28.208Z,101479.41
2022-10-19T21:22:01.013Z,101475.03
2022-10-19T21:24:33.657Z,101475.72
2022-10-19T21:27:03.464Z,101476.06
2022-10-19T21:29:31.792Z,101472.25
2022-10-19T21:32:00.144Z,101457.06
2022-10-19T21:34:32.560Z,101466.72
2022-10-19T21:37:00.954Z,101463.19
2022-10-19T21:39:31.105Z,101463.06
2022-10-19T21:41:59.553Z,101468.34
2022-10-19T21:44:27.924Z,101481.47
2022-10-19T21:46:56.131Z,101473.50
2022-10-19T21:49:24.427Z,101476.97
2022-10-19T21:51:54.103Z,101470.19
2022-10-19T21:54:24.752Z,101479.59
2022-10-19T21:56:56.046Z,101478.81
2022-10-19T21:59:24.466Z,101474.75
2022-10-19T22:01:53.959Z,101470.75
2022-10-19T22:04:23.283Z,101464.41
2022-10-19T22:06:51.586Z,101472.59
2022-10-19T22:09:24.453Z,101465.13
2022-10-19T22:11:52.835Z,101458.22
2022-10-19T22:14:23.117Z,101434.41
2022-10-19T22:16:51.435Z,101443.63
2022-10-19T22:19:19.895Z,101441.00
2022-10-19T22:21:48.506Z,101425.81
2022-10-19T22:24:17.258Z,101427.66
2022-10-19T22:26:47.438Z,101429.13
2022-10-19T22:29:16.295Z,101421.66
2022-10-19T22:31:46.916Z,101414.88
2022-10-19T22:34:18.820Z,101412.94
2022-10-19T22:36:47.349Z,101412.13
2022-10-19T22:39:18.175Z,101396.84
2022-10-19T22:41:46.443Z,101393.75
2022-10-19T22:44:14.735Z,101394.22
2022-10-19T22:46:43.068Z,101385.13
2022-10-19T22:49:13.644Z,101386.38
2022-10-19T22:51:41.937Z,101387.41
2022-10-19T22:54:10.348Z,101379.13
2022-10-19T22:56:38.778Z,101375.34
2022-10-19T22:59:08.230Z,101380.75
2022-10-19T23:01:37.026Z,101369.72
2022-10-19T23:04:05.871Z,101382.59
2022-10-19T23:06:36.129Z,101373.63
2022-10-19T23:09:04.682Z,101375.94
2022-10-19T23:11:32.949Z,101371.69
2022-10-19T23:14:01.203Z,101373.28
2022-10-19T23:16:29.514Z,101374.19
2022-10-19T23:18:57.915Z,101377.66
2022-10-19T23:21:26.095Z,101374.31
2022-10-19T23:23:56.473Z,101377.09
2022-10-19T23:26:25.783Z,101370.88
2022-10-19T23:28:54.063Z,101363.88
2022-10-19T23:31:25.556Z,101359.59
2022-10-19T23:33:55.201Z,101364.91
2022-10-19T23:36:26.259Z,101359.84
2022-10-19T23:38:58.334Z,101362.16
2022-10-19T23:41:27.145Z,101363.41
2022-10-19T23:43:55.514Z,101365.94
2022-10-19T23:46:24.022Z,101361.09
2022-10-19T23:48:52.396Z,101362.25
2022-10-19T23:51:22.485Z,101363.53
2022-10-19T23:53:53.681Z,101356.16
2022-10-19T23:56:26.119Z,101353.75
2022-10-19T23:58:54.791Z,101357.09
